createdAt,value
2023-05-19T00:08:12.090Z,102103.38
2023-05-19T00:18:34.613Z,102108.44
2023-05-19T00:28:56.334Z,102115.94
2023-05-19T00:39:18.218Z,102110.03
2023-05-19T00:49:40.450Z,102113.00
2023-05-19T01:00:04.256Z,102109.16
2023-05-19T01:10:26.246Z,102108.84
2023-05-19T01:20:53.588Z,102102.50
2023-05-19T01:31:16.874Z,102102.06
2023-05-19T01:41:42.368Z,102096.53
2023-05-19T01:52:04.517Z,102104.63
2023-05-19T02:02:43.980Z,102107.00
2023-05-19T02:13:09.316Z,102111.13
2023-05-19T02:23:31.160Z,102112.41
2023-05-19T02:33:52.929Z,102104.91
2023-05-19T02:44:14.772Z,102090.91
2023-05-19T02:54:36.660Z,102084.81
2023-05-19T03:04:58.456Z,102080.09
2023-05-19T03:15:22.949Z,102082.97
2023-05-19T03:25:44.948Z,102080.97
2023-05-19T03:36:07.232Z,102081.00
2023-05-19T03:46:29.130Z,102088.63
2023-05-19T03:56:51.287Z,102088.75
2023-05-19T04:07:13.121Z,102089.13
2023-05-19T04:17:35.179Z,102101.94
2023-05-19T04:27:57.929Z,102107.47
2023-05-19T04:38:20.274Z,102101.31
2023-05-19T04:48:42.801Z,102103.63
2023-05-19T04:59:04.742Z,102106.13
2023-05-19T05:09:26.719Z,102109.25
2023-05-19T05:19:48.916Z,102108.00
2023-05-19T05:30:11.036Z,102106.75
2023-05-19T05:40:32.908Z,102109.03
2023-05-19T05:50:56.867Z,102094.66
2023-05-19T06:01:18.716Z,102085.31
2023-05-19T06:11:40.552Z,102088.81
2023-05-19T06:22:02.475Z,102082.53
2023-05-19T06:32:24.380Z,102084.03
2023-05-19T06:42:46.299Z,102081.00
2023-05-19T06:53:08.075Z,102096.13
2023-05-19T07:03:10.084Z,102092.91
2023-05-19T07:13:11.638Z,102088.66
2023-05-19T07:23:13.278Z,102085.19
2023-05-19T07:43:33.588Z,102077.22
2023-05-19T07:53:35.124Z,102059.63
2023-05-19T08:03:57.817Z,102064.63
2023-05-19T08:14:22.259Z,102066.09
2023-05-19T08:24:44.683Z,102056.03
2023-05-19T08:35:07.641Z,102054.28
2023-05-19T08:45:30.678Z,102045.25
2023-05-19T08:55:55.510Z,102030.97
2023-05-19T09:06:17.381Z,102020.63
2023-05-19T09:16:39.261Z,102014.78
2023-05-19T09:27:02.276Z,102012.59
2023-05-19T09:37:24.794Z,102004.78
2023-05-19T09:47:27.887Z,101983.25
2023-05-19T09:57:36.942Z,101982.19
2023-05-19T10:07:40.538Z,101978.75
2023-05-19T10:17:43.411Z,101963.25
2023-05-19T10:28:00.650Z,101964.16
2023-05-19T10:38:13.326Z,101962.34
2023-05-19T10:48:16.799Z,101963.78
2023-05-19T10:58:39.594Z,101955.06
2023-05-19T11:08:41.556Z,101950.63
2023-05-19T11:19:06.105Z,101936.56
2023-05-19T11:29:28.269Z,101936.41
2023-05-19T11:39:50.222Z,101928.59
2023-05-19T11:50:12.794Z,101923.22
2023-05-19T12:00:38.976Z,101917.22
2023-05-19T12:11:01.021Z,101904.88
2023-05-19T12:21:22.970Z,101890.78
2023-05-19T12:31:48.307Z,101879.28
2023-05-19T12:42:11.412Z,101881.00
2023-05-19T12:52:35.590Z,101861.38
2023-05-19T13:03:05.694Z,101853.44
2023-05-19T13:13:28.025Z,101854.25
2023-05-19T13:23:49.936Z,101840.25
2023-05-19T13:34:11.735Z,101843.75
2023-05-19T13:44:33.569Z,101830.34
2023-05-19T13:54:56.665Z,101819.81
2023-05-19T14:05:19.078Z,101827.75
2023-05-19T14:15:41.311Z,101814.25
2023-05-19T14:26:03.157Z,101814.63
2023-05-19T14:36:25.025Z,101818.63
2023-05-19T14:46:46.993Z,101815.09
2023-05-19T14:57:08.843Z,101812.50
2023-05-19T15:07:11.106Z,101793.31
2023-05-19T15:17:13.027Z,101799.06
2023-05-19T15:27:36.445Z,101796.59
2023-05-19T15:37:38.010Z,101779.72
2023-05-19T15:47:39.485Z,101785.88
2023-05-19T15:57:41.334Z,101777.25
2023-05-19T16:07:43.165Z,101770.81
2023-05-19T16:17:44.806Z,101763.22
2023-05-19T16:27:46.466Z,101774.69
2023-05-19T16:37:48.551Z,101749.38
2023-05-19T16:47:50.058Z,101751.25
2023-05-19T16:58:12.147Z,101762.81
2023-05-19T17:08:33.907Z,101747.88
2023-05-19T17:18:56.029Z,101748.19
2023-05-19T17:29:17.933Z,101751.81
2023-05-19T17:39:20.163Z,101756.31
2023-05-19T17:49:22.979Z,101759.06
2023-05-19T17:59:24.962Z,101747.78
2023-05-19T18:09:28.918Z,101765.41
2023-05-19T18:19:30.734Z,101755.97
2023-05-19T18:29:34.227Z,101760.56
2023-05-19T18:39:36.865Z,101783.34
2023-05-19T18:49:58.925Z,101777.44
2023-05-19T19:00:20.778Z,101782.97
2023-05-19T19:10:42.640Z,101784.09
2023-05-19T19:21:06.039Z,101790.44
2023-05-19T19:31:30.852Z,101803.69
2023-05-19T19:41:52.707Z,101816.25
2023-05-19T19:51:54.222Z,101829.34
2023-05-19T20:02:16.119Z,101820.94
2023-05-19T20:12:38.256Z,101840.25
2023-05-19T20:22:40.208Z,101839.56
2023-05-19T20:32:41.881Z,101835.34
2023-05-19T20:42:43.492Z,101839.84
2023-05-19T20:52:44.975Z,101849.53
2023-05-19T21:02:46.580Z,101857.31
2023-05-19T21:12:48.111Z,101845.22
2023-05-19T21:22:49.593Z,101853.16
2023-05-19T21:32:51.316Z,101849.66
2023-05-19T21:42:52.929Z,101838.41
2023-05-19T21:52:54.762Z,101845.38
2023-05-19T22:03:16.764Z,101854.94
2023-05-19T22:13:41.020Z,101855.84
2023-05-19T22:24:03.031Z,101853.22
2023-05-19T22:34:25.161Z,101849.75
2023-05-19T22:44:46.924Z,101855.81
2023-05-19T22:55:09.319Z,101849.78
2023-05-19T23:05:31.236Z,101835.00
2023-05-19T23:15:53.098Z,101836.72
2023-05-19T23:26:14.936Z,101848.78
2023-05-19T23:36:37.026Z,101837.44
2023-05-19T23:46:59.021Z,101833.94
2023-05-19T23:57:20.974Z,101837.34
